Time;durP1;ratioP1;P1;durP2;ratioP2;P2;SDS_P1;SDS_P2;PMS_P1;PMS_P2;Temp;Humidity;BMP_temperature;BMP_pressure;BME280_temperature;BME280_humidity;BME280_pressure;Samples;Min_cycle;Max_cycle;Signal;HPM_P1;HPM_P2
2024/03/25 00:01:25;;;;;;;6.35;5.75;;;16.60;68.20;;;;;;4998672;28;20376;-78
2024/03/25 00:03:51;;;;;;;6.90;5.70;;;16.70;68.40;;;;;;4999661;28;20200;-79
2024/03/25 00:06:16;;;;;;;6.18;5.30;;;16.70;68.30;;;;;;5000009;28;20041;-78
2024/03/25 00:08:42;;;;;;;6.00;5.40;;;16.60;68.20;;;;;;5018345;28;20076;-80
2024/03/25 00:11:08;;;;;;;6.15;5.18;;;16.60;68.30;;;;;;5015254;28;20044;-78
2024/03/25 00:13:34;;;;;;;6.95;5.60;;;16.60;68.10;;;;;;5015877;28;20033;-78
2024/03/25 00:16:00;;;;;;;5.43;4.90;;;16.60;69.10;;;;;;5013567;28;20045;-78
2024/03/25 00:18:26;;;;;;;5.75;5.25;;;16.60;68.30;;;;;;5028859;28;20057;-80
2024/03/25 00:20:51;;;;;;;5.63;5.07;;;16.60;69.10;;;;;;5027544;28;20119;-80
2024/03/25 00:23:17;;;;;;;5.00;4.35;;;16.60;68.30;;;;;;5028153;28;20047;-80
2024/03/25 00:25:43;;;;;;;5.25;4.72;;;16.60;68.30;;;;;;5030970;28;20320;-80
2024/03/25 00:28:08;;;;;;;5.25;4.78;;;16.60;68.30;;;;;;5029422;28;20498;-80
2024/03/25 00:30:34;;;;;;;4.90;4.60;;;16.60;68.40;;;;;;5017690;28;20076;-80
2024/03/25 00:32:59;;;;;;;5.53;4.72;;;16.60;68.40;;;;;;5014705;28;20042;-77
2024/03/25 00:35:25;;;;;;;5.60;5.10;;;16.60;68.40;;;;;;4999803;28;20536;-80
2024/03/25 00:37:51;;;;;;;5.20;4.80;;;16.60;68.40;;;;;;5027794;28;20046;-80
2024/03/25 00:40:17;;;;;;;6.25;4.95;;;16.60;68.50;;;;;;5014212;28;20040;-78
2024/03/25 00:42:44;;;;;;;5.40;4.90;;;16.60;68.40;;;;;;5003400;28;20042;-78
2024/03/25 00:45:10;;;;;;;5.68;5.18;;;16.60;68.40;;;;;;5007611;28;20050;-80
2024/03/25 00:47:35;;;;;;;6.70;5.32;;;16.60;68.50;;;;;;4995825;28;20084;-80
2024/03/25 00:50:01;;;;;;;5.57;5.00;;;16.60;68.40;;;;;;5014856;28;20046;-80
2024/03/25 00:52:26;;;;;;;4.65;4.25;;;16.60;68.40;;;;;;5014399;28;20399;-80
2024/03/25 00:54:52;;;;;;;5.30;4.80;;;16.60;68.30;;;;;;5027824;28;20041;-78
2024/03/25 00:57:18;;;;;;;4.63;4.22;;;16.50;68.30;;;;;;5031071;28;20043;-80
2024/03/25 00:59:44;;;;;;;5.68;4.95;;;16.50;68.40;;;;;;5002518;28;20034;-80
2024/03/25 01:02:09;;;;;;;4.90;4.50;;;16.50;68.30;;;;;;4997408;28;20045;-80
2024/03/25 01:04:35;;;;;;;4.97;4.57;;;16.50;68.40;;;;;;5026503;28;20042;-80
2024/03/25 01:07:00;;;;;;;4.28;3.83;;;16.50;68.40;;;;;;5018752;28;20453;-80
2024/03/25 01:09:26;;;;;;;4.60;4.20;;;16.50;68.20;;;;;;5020176;28;20052;-80
2024/03/25 01:11:51;;;;;;;4.65;4.25;;;16.50;68.30;;;;;;5033710;28;20137;-80
2024/03/25 01:14:17;;;;;;;5.10;4.57;;;16.50;69.10;;;;;;4996973;28;20407;-80
2024/03/25 01:16:43;;;;;;;4.53;4.22;;;16.50;68.30;;;;;;5016432;28;20129;-80
2024/03/25 01:19:08;;;;;;;4.38;3.97;;;16.50;68.20;;;;;;5011276;28;20056;-80
2024/03/25 01:21:34;;;;;;;4.93;4.45;;;16.50;68.30;;;;;;5018937;28;20049;-79
2024/03/25 01:24:00;;;;;;;4.22;3.88;;;16.50;68.20;;;;;;5029918;28;20049;-80
2024/03/25 01:26:27;;;;;;;4.50;3.95;;;16.50;68.40;;;;;;5017008;28;20061;-80
2024/03/25 01:28:52;;;;;;;3.88;3.47;;;16.50;68.40;;;;;;5036669;28;20668;-80
2024/03/25 01:31:19;;;;;;;4.15;3.80;;;16.50;68.30;;;;;;5014816;28;20073;-80
2024/03/25 01:33:45;;;;;;;3.90;3.70;;;16.50;68.30;;;;;;5015518;28;20045;-80
2024/03/25 01:36:16;;;;;;;4.20;3.80;;;16.50;68.30;;;;;;5019159;28;20056;-80
2024/03/25 01:38:41;;;;;;;4.13;3.83;;;16.50;68.30;;;;;;5001869;28;20033;-80
2024/03/25 01:41:11;;;;;;;4.07;3.78;;;16.50;68.40;;;;;;5015776;28;20042;-80
2024/03/25 01:43:37;;;;;;;3.95;3.65;;;16.50;68.30;;;;;;5034012;28;20041;-80
2024/03/25 01:46:02;;;;;;;3.90;3.50;;;16.50;68.40;;;;;;5003146;28;20100;-80
2024/03/25 01:48:28;;;;;;;4.45;4.05;;;16.50;68.40;;;;;;5037058;28;20053;-80
2024/03/25 01:50:53;;;;;;;4.57;4.18;;;16.50;68.40;;;;;;5001827;28;20060;-80
2024/03/25 01:53:19;;;;;;;4.47;3.88;;;16.40;68.40;;;;;;4984281;28;20050;-81
2024/03/25 01:55:44;;;;;;;3.97;3.67;;;16.50;68.40;;;;;;5016367;28;20033;-80
2024/03/25 01:58:10;;;;;;;7.03;3.63;;;16.40;68.30;;;;;;5001092;28;20076;-80
2024/03/25 02:00:35;;;;;;;3.70;3.40;;;16.40;68.30;;;;;;5017649;28;20037;-80
2024/03/25 02:03:01;;;;;;;3.92;3.58;;;16.40;68.30;;;;;;5030470;28;20041;-80
2024/03/25 02:05:26;;;;;;;4.03;3.72;;;16.40;68.30;;;;;;5028694;28;20068;-80
2024/03/25 02:07:53;;;;;;;3.50;3.20;;;16.40;68.30;;;;;;5033672;28;20057;-79
2024/03/25 02:10:20;;;;;;;3.60;3.30;;;16.40;68.40;;;;;;5032758;28;20045;-79
2024/03/25 02:12:46;;;;;;;3.53;3.22;;;16.40;69.20;;;;;;5004047;28;20033;-80
2024/03/25 02:15:13;;;;;;;3.25;3.05;;;16.40;68.40;;;;;;5020038;28;20040;-80
2024/03/25 02:17:38;;;;;;;3.72;3.42;;;16.40;69.10;;;;;;5028447;28;20056;-80
2024/03/25 02:20:11;;;;;;;3.80;3.50;;;16.40;68.40;;;;;;5030378;28;20402;-79
2024/03/25 02:22:37;;;;;;;3.38;3.08;;;16.40;68.40;;;;;;5026741;28;20560;-80
2024/03/25 02:25:08;;;;;;;4.10;3.70;;;16.40;68.40;;;;;;5033707;28;20045;-79
2024/03/25 02:27:33;;;;;;;3.47;3.17;;;16.40;68.40;;;;;;5032137;28;20311;-80
2024/03/25 02:30:03;;;;;;;3.90;3.60;;;16.40;68.40;;;;;;5013818;28;20506;-79
2024/03/25 02:32:29;;;;;;;3.78;3.20;;;16.40;68.40;;;;;;5030516;28;20049;-79
2024/03/25 02:34:55;;;;;;;3.58;3.28;;;16.40;68.50;;;;;;5000820;28;20033;-79
2024/03/25 02:37:20;;;;;;;3.25;3.05;;;16.40;68.40;;;;;;4999030;28;20091;-78
2024/03/25 02:39:46;;;;;;;3.25;2.95;;;16.40;68.40;;;;;;5016609;28;20064;-80
2024/03/25 02:42:11;;;;;;;2.78;2.58;;;16.40;68.40;;;;;;5027387;28;20514;-80
2024/03/25 02:44:37;;;;;;;3.50;3.20;;;16.40;68.40;;;;;;5000738;28;20202;-80
2024/03/25 02:47:04;;;;;;;3.03;2.83;;;16.40;68.40;;;;;;4996073;28;20048;-79
2024/03/25 02:49:29;;;;;;;3.53;3.22;;;16.40;68.40;;;;;;4999409;28;20045;-79
2024/03/25 02:51:55;;;;;;;3.60;3.30;;;16.40;68.40;;;;;;5032621;28;20742;-80
2024/03/25 02:54:21;;;;;;;3.20;3.00;;;16.40;68.50;;;;;;5014022;28;20506;-80
2024/03/25 02:56:46;;;;;;;2.38;2.28;;;16.40;68.40;;;;;;5014798;28;20037;-79
2024/03/25 02:59:12;;;;;;;3.05;2.83;;;16.40;68.40;;;;;;5015267;28;20041;-79
2024/03/25 03:01:38;;;;;;;2.65;2.47;;;16.40;68.40;;;;;;5029512;28;20049;-79
2024/03/25 03:04:03;;;;;;;2.78;2.58;;;16.40;68.40;;;;;;5025328;28;20422;-79
2024/03/25 03:06:29;;;;;;;3.00;2.80;;;16.40;68.40;;;;;;5027392;28;20037;-79
2024/03/25 03:08:54;;;;;;;2.65;2.45;;;16.30;68.30;;;;;;5015183;28;20560;-79
2024/03/25 03:11:20;;;;;;;3.08;2.80;;;16.40;68.40;;;;;;5012964;28;20053;-79
2024/03/25 03:13:45;;;;;;;2.70;2.50;;;16.30;68.20;;;;;;5013796;28;20050;-79
2024/03/25 03:16:11;;;;;;;2.45;2.33;;;16.40;68.20;;;;;;5017496;28;20084;-79
2024/03/25 03:18:37;;;;;;;2.63;2.50;;;16.40;68.10;;;;;;5026078;28;20049;-79
2024/03/25 03:21:03;;;;;;;2.47;2.28;;;16.40;68.20;;;;;;5027417;28;20439;-79
2024/03/25 03:23:28;;;;;;;2.80;2.60;;;16.40;68.00;;;;;;5026634;28;20041;-79
2024/03/25 03:25:54;;;;;;;2.45;2.25;;;16.40;68.10;;;;;;5030234;28;20045;-79
2024/03/25 03:28:20;;;;;;;2.58;2.30;;;16.40;68.20;;;;;;5031377;28;20041;-79
2024/03/25 03:30:45;;;;;;;2.75;2.55;;;16.40;68.10;;;;;;4997186;28;20567;-79
2024/03/25 03:33:11;;;;;;;2.75;2.55;;;16.40;68.20;;;;;;5017066;28;20407;-79
2024/03/25 03:35:36;;;;;;;2.67;2.47;;;16.40;69.00;;;;;;5015434;28;20537;-79
2024/03/25 03:38:02;;;;;;;2.72;2.38;;;16.40;68.40;;;;;;5026673;28;20533;-79
2024/03/25 03:40:28;;;;;;;3.38;2.58;;;16.30;68.50;;;;;;5012543;28;20037;-79
2024/03/25 03:42:54;;;;;;;2.97;2.67;;;16.40;68.40;;;;;;5028995;28;20137;-79
2024/03/25 03:45:19;;;;;;;2.13;2.03;;;16.40;68.40;;;;;;5014667;28;20196;-79
2024/03/25 03:47:45;;;;;;;3.17;2.40;;;16.40;68.40;;;;;;5027715;28;20037;-79
2024/03/25 03:50:11;;;;;;;2.05;1.88;;;16.40;68.40;;;;;;5028283;28;20056;-79
2024/03/25 03:52:36;;;;;;;2.40;2.20;;;16.40;69.20;;;;;;5030452;28;20573;-79
2024/03/25 03:55:02;;;;;;;2.33;2.17;;;16.40;68.40;;;;;;5018188;28;20041;-79
2024/03/25 03:57:27;;;;;;;2.22;2.03;;;16.40;68.50;;;;;;5017566;28;20080;-79
2024/03/25 03:59:53;;;;;;;2.00;1.90;;;16.40;68.60;;;;;;5000918;28;20048;-79
2024/03/25 04:02:19;;;;;;;2.53;2.40;;;16.40;68.50;;;;;;5027934;28;20029;-79
2024/03/25 04:04:44;;;;;;;2.15;2.03;;;16.40;68.80;;;;;;5014597;28;20069;-79
2024/03/25 04:07:10;;;;;;;2.10;2.00;;;16.40;68.50;;;;;;5017437;28;20038;-79
2024/03/25 04:09:35;;;;;;;2.50;2.30;;;16.40;68.60;;;;;;5027608;28;20502;-80
2024/03/25 04:12:01;;;;;;;2.38;2.25;;;16.40;68.60;;;;;;5025087;28;20076;-79
2024/03/25 04:14:27;;;;;;;2.38;2.15;;;16.40;68.60;;;;;;5012883;28;20037;-79
2024/03/25 04:16:53;;;;;;;2.95;2.13;;;16.40;68.60;;;;;;5012184;28;20658;-79
2024/03/25 04:19:19;;;;;;;2.17;2.00;;;16.40;69.40;;;;;;5015665;28;20542;-80
2024/03/25 04:21:45;;;;;;;3.22;2.15;;;16.40;68.50;;;;;;5028401;28;20127;-80
2024/03/25 04:24:10;;;;;;;2.00;1.85;;;16.40;68.80;;;;;;5026352;28;20120;-79
2024/03/25 04:26:36;;;;;;;2.20;2.00;;;16.30;68.60;;;;;;5026018;28;20423;-79
2024/03/25 04:29:01;;;;;;;2.30;2.10;;;16.40;69.30;;;;;;5011946;28;20045;-79
2024/03/25 04:31:27;;;;;;;3.20;2.15;;;16.40;68.70;;;;;;5030965;28;20133;-79
2024/03/25 04:33:52;;;;;;;5.05;2.28;;;16.30;68.70;;;;;;5034638;28;20071;-79
2024/03/25 04:36:18;;;;;;;1.90;1.65;;;16.40;68.90;;;;;;5032418;28;20076;-80
2024/03/25 04:38:43;;;;;;;2.28;2.17;;;16.40;68.80;;;;;;5030447;28;20044;-80
2024/03/25 04:41:09;;;;;;;1.90;1.80;;;16.40;68.80;;;;;;5030108;28;20558;-79
2024/03/25 04:43:35;;;;;;;2.13;1.98;;;16.30;68.80;;;;;;5034055;28;20037;-80
2024/03/25 04:46:01;;;;;;;1.83;1.73;;;16.40;68.70;;;;;;5017720;28;20064;-80
2024/03/25 04:48:26;;;;;;;1.88;1.77;;;16.40;68.70;;;;;;5032533;28;20080;-80
2024/03/25 04:50:52;;;;;;;2.17;1.98;;;16.40;68.80;;;;;;5016329;28;20124;-79
2024/03/25 04:53:17;;;;;;;1.95;1.85;;;16.40;69.50;;;;;;5028086;28;20072;-79
2024/03/25 04:55:43;;;;;;;1.80;1.70;;;16.40;68.80;;;;;;5031630;28;20788;-79
2024/03/25 04:58:09;;;;;;;2.08;1.98;;;16.40;69.10;;;;;;5035783;28;20458;-78
2024/03/25 05:00:34;;;;;;;2.42;2.22;;;16.40;68.70;;;;;;5032426;28;20135;-80
2024/03/25 05:03:00;;;;;;;1.88;1.77;;;16.40;68.90;;;;;;5032245;28;20075;-80
2024/03/25 05:05:25;;;;;;;2.55;2.35;;;16.40;68.80;;;;;;4997416;28;20048;-79
2024/03/25 05:07:51;;;;;;;1.67;1.58;;;16.40;68.80;;;;;;5015934;28;20126;-79
2024/03/25 05:10:16;;;;;;;1.90;1.50;;;16.40;68.70;;;;;;5019266;28;20254;-78
2024/03/25 05:12:44;;;;;;;3.28;1.80;;;16.40;68.80;;;;;;5017080;28;20120;-78
2024/03/25 05:15:09;;;;;;;1.83;1.70;;;16.40;68.80;;;;;;5033170;28;20118;-78
2024/03/25 05:17:35;;;;;;;1.88;1.77;;;16.40;68.90;;;;;;5036150;28;20506;-78
2024/03/25 05:20:00;;;;;;;2.10;2.00;;;16.40;68.90;;;;;;5033176;28;20460;-80
2024/03/25 05:22:26;;;;;;;2.60;2.40;;;16.40;69.10;;;;;;5031399;28;20042;-80
2024/03/25 05:24:51;;;;;;;1.88;1.77;;;16.40;69.30;;;;;;5020726;28;20053;-80
2024/03/25 05:27:17;;;;;;;1.90;1.80;;;16.40;69.20;;;;;;5014719;28;20095;-79
2024/03/25 05:29:43;;;;;;;1.85;1.75;;;16.40;69.20;;;;;;5027910;28;20071;-80
2024/03/25 05:32:08;;;;;;;1.52;1.42;;;16.30;69.00;;;;;;5033698;28;20034;-78
2024/03/25 05:34:34;;;;;;;1.80;1.70;;;16.40;69.30;;;;;;5031225;28;20511;-79
2024/03/25 05:36:59;;;;;;;1.80;1.70;;;16.40;69.30;;;;;;5001197;28;20128;-79
2024/03/25 05:39:25;;;;;;;1.98;1.73;;;16.40;69.50;;;;;;5031766;28;20040;-79
2024/03/25 05:41:50;;;;;;;1.90;1.80;;;16.40;69.80;;;;;;5036526;28;20576;-79
2024/03/25 05:44:17;;;;;;;1.92;1.83;;;16.40;69.80;;;;;;5030784;28;20056;-79
2024/03/25 05:46:42;;;;;;;1.90;1.80;;;16.40;70.10;;;;;;5008561;28;20049;-79
2024/03/25 05:49:08;;;;;;;1.65;1.55;;;16.40;70.20;;;;;;5019050;28;20029;-79
2024/03/25 05:51:33;;;;;;;1.58;1.48;;;16.40;70.20;;;;;;5002331;28;20120;-79
2024/03/25 05:53:59;;;;;;;1.83;1.65;;;16.40;70.30;;;;;;5028697;28;20032;-79
2024/03/25 05:56:30;;;;;;;1.90;1.80;;;16.40;70.30;;;;;;5033521;28;20037;-79
2024/03/25 05:58:56;;;;;;;1.77;1.63;;;16.40;70.20;;;;;;5019573;28;20416;-79
2024/03/25 06:01:22;;;;;;;1.73;1.20;;;16.40;70.10;;;;;;5029089;28;20053;-79
2024/03/25 06:03:47;;;;;;;1.90;1.33;;;16.40;70.10;;;;;;5027363;28;20085;-78
2024/03/25 06:06:13;;;;;;;1.80;1.70;;;16.40;70.80;;;;;;5029059;28;20103;-78
2024/03/25 06:08:38;;;;;;;1.50;1.15;;;16.40;69.80;;;;;;5014890;28;20099;-79
2024/03/25 06:11:04;;;;;;;1.67;1.58;;;16.40;69.90;;;;;;5029589;28;20034;-79
2024/03/25 06:13:29;;;;;;;1.25;1.15;;;16.40;70.00;;;;;;5025137;28;20057;-79
2024/03/25 06:15:55;;;;;;;1.40;1.30;;;16.40;69.90;;;;;;5011294;28;20050;-79
2024/03/25 06:18:21;;;;;;;1.27;1.17;;;16.40;69.70;;;;;;5027127;28;20033;-80
2024/03/25 06:20:46;;;;;;;1.42;1.33;;;16.40;69.70;;;;;;5028808;28;20053;-80
2024/03/25 06:23:22;;;;;;;1.45;1.35;;;16.40;69.60;;;;;;5024621;28;20051;-80
2024/03/25 06:25:47;;;;;;;1.20;1.10;;;16.40;69.70;;;;;;5012811;28;20050;-79
2024/03/25 06:28:13;;;;;;;1.60;1.50;;;16.40;69.80;;;;;;5026508;28;20056;-79
2024/03/25 06:36:07;;;;;;;1.30;1.20;;;16.40;69.60;;;;;;5036392;28;20086;-79
2024/03/25 06:38:32;;;;;;;1.15;1.08;;;16.40;69.70;;;;;;5027008;28;20049;-80
2024/03/25 06:40:58;;;;;;;1.17;1.15;;;16.30;69.50;;;;;;5026430;28;20045;-80
2024/03/25 06:43:24;;;;;;;1.25;1.15;;;16.40;69.60;;;;;;5025211;28;20046;-79
2024/03/25 06:45:49;;;;;;;1.45;1.35;;;16.40;69.70;;;;;;5026561;28;20068;-79
2024/03/25 06:48:15;;;;;;;1.40;1.30;;;16.40;69.90;;;;;;5027452;28;20048;-79
2024/03/25 06:50:40;;;;;;;1.40;1.30;;;16.40;69.40;;;;;;4994542;28;20570;-79
2024/03/25 06:53:06;;;;;;;2.55;1.30;;;16.40;69.70;;;;;;5027283;28;20037;-79
2024/03/25 06:55:31;;;;;;;1.23;1.13;;;16.40;69.60;;;;;;5011959;28;20049;-79
2024/03/25 06:57:57;;;;;;;1.25;1.15;;;16.40;69.60;;;;;;5023896;28;20076;-79
2024/03/25 07:00:23;;;;;;;1.83;1.20;;;16.40;69.50;;;;;;5009890;28;20064;-79
2024/03/25 07:02:49;;;;;;;1.48;1.30;;;16.40;69.60;;;;;;5023094;28;20047;-79
2024/03/25 07:05:14;;;;;;;1.10;1.00;;;16.40;69.70;;;;;;4992803;28;20128;-79
2024/03/25 07:07:40;;;;;;;1.42;1.33;;;16.40;69.90;;;;;;5026087;28;20064;-80
2024/03/25 07:10:06;;;;;;;1.40;1.30;;;16.40;70.00;;;;;;5031020;28;20053;-79
2024/03/25 07:12:32;;;;;;;1.40;1.30;;;16.40;70.30;;;;;;4997181;28;20033;-79
2024/03/25 07:14:57;;;;;;;1.15;1.10;;;16.40;69.60;;;;;;5029587;28;20095;-79
2024/03/25 07:17:23;;;;;;;1.20;1.10;;;16.50;69.70;;;;;;5012073;28;20040;-79
2024/03/25 07:19:49;;;;;;;2.08;1.10;;;16.40;69.50;;;;;;5025939;28;20029;-80
2024/03/25 07:22:14;;;;;;;1.20;1.20;;;16.40;69.70;;;;;;5012706;28;20068;-79
2024/03/25 07:24:40;;;;;;;2.53;1.40;;;16.50;69.90;;;;;;5036543;28;20118;-79
2024/03/25 07:27:07;;;;;;;2.85;1.40;;;16.50;70.10;;;;;;5034148;28;20529;-79
2024/03/25 07:29:33;;;;;;;1.77;1.20;;;16.50;70.10;;;;;;5027820;28;20041;-79
2024/03/25 07:31:58;;;;;;;1.58;1.48;;;16.50;69.90;;;;;;5011998;28;20041;-78
2024/03/25 07:34:24;;;;;;;1.30;1.20;;;16.40;69.60;;;;;;5030477;28;20064;-79
2024/03/25 07:36:50;;;;;;;1.92;1.42;;;16.40;69.60;;;;;;5029907;28;20057;-80
2024/03/25 07:39:16;;;;;;;1.55;1.40;;;16.50;70.50;;;;;;5035428;28;20040;-80
2024/03/25 07:41:41;;;;;;;1.58;1.35;;;16.50;70.00;;;;;;5013259;28;20049;-79
2024/03/25 07:44:07;;;;;;;1.17;0.90;;;16.50;70.00;;;;;;4992462;28;20050;-79
2024/03/25 07:46:32;;;;;;;1.35;1.13;;;16.40;70.20;;;;;;5004332;28;20586;-79
2024/03/25 07:48:58;;;;;;;1.33;1.23;;;16.40;70.30;;;;;;4998483;28;20039;-79
2024/03/25 07:51:24;;;;;;;1.42;1.33;;;16.40;70.00;;;;;;5002506;28;20060;-79
2024/03/25 07:53:49;;;;;;;1.55;1.42;;;16.40;70.00;;;;;;5015264;28;20511;-79
2024/03/25 07:56:15;;;;;;;2.65;1.10;;;16.40;70.00;;;;;;4993669;28;20049;-79
2024/03/25 07:58:41;;;;;;;1.25;1.00;;;16.40;70.00;;;;;;5013252;28;21020;-80
2024/03/25 08:01:06;;;;;;;1.30;1.20;;;16.40;70.10;;;;;;5012037;28;20520;-79
2024/03/25 08:03:32;;;;;;;1.27;1.10;;;16.40;70.00;;;;;;5011947;28;20041;-79
2024/03/25 08:05:57;;;;;;;1.20;0.88;;;16.40;70.10;;;;;;5014503;28;20048;-79
2024/03/25 08:08:23;;;;;;;2.15;1.13;;;16.40;70.20;;;;;;5029648;28;20033;-79
2024/03/25 08:10:49;;;;;;;1.33;1.23;;;16.40;70.10;;;;;;5023242;28;20037;-79
2024/03/25 08:13:14;;;;;;;2.45;1.13;;;16.40;70.10;;;;;;5004544;28;20026;-80
2024/03/25 08:15:41;;;;;;;1.08;0.95;;;16.40;70.00;;;;;;5010593;28;20423;-79
2024/03/25 08:18:06;;;;;;;2.13;1.00;;;16.40;70.00;;;;;;5012322;28;20179;-79
2024/03/25 08:20:32;;;;;;;1.33;1.23;;;16.40;70.10;;;;;;5028386;28;20120;-79
2024/03/25 08:22:57;;;;;;;1.00;1.00;;;16.40;70.10;;;;;;4983950;28;20245;-80
2024/03/25 08:25:23;;;;;;;0.80;0.80;;;16.40;70.80;;;;;;5016251;28;20030;-79
2024/03/25 08:27:48;;;;;;;2.13;1.02;;;16.50;70.00;;;;;;5022351;28;20046;-79
2024/03/25 08:30:14;;;;;;;1.00;1.00;;;16.50;69.90;;;;;;5030861;28;20550;-79
2024/03/25 08:32:40;;;;;;;1.75;0.95;;;16.50;70.00;;;;;;5011799;28;20041;-79
2024/03/25 08:35:06;;;;;;;1.30;1.20;;;16.50;69.90;;;;;;5019069;28;20042;-79
2024/03/25 08:37:31;;;;;;;1.17;1.17;;;16.50;69.90;;;;;;5032784;28;20064;-79
2024/03/25 08:39:57;;;;;;;1.30;1.20;;;16.50;69.80;;;;;;5010182;28;20068;-79
2024/03/25 08:42:22;;;;;;;1.17;1.08;;;16.50;69.70;;;;;;5029884;28;20053;-79
2024/03/25 08:44:48;;;;;;;1.52;1.02;;;16.60;69.70;;;;;;5029578;28;20534;-79
2024/03/25 08:47:14;;;;;;;1.02;0.95;;;16.60;69.60;;;;;;5029530;28;20057;-79
2024/03/25 08:49:39;;;;;;;1.52;0.88;;;16.60;69.60;;;;;;5028419;28;20084;-79
2024/03/25 08:52:05;;;;;;;0.85;0.80;;;16.60;69.50;;;;;;5016597;28;20038;-79
2024/03/25 08:54:30;;;;;;;1.08;0.80;;;16.60;69.40;;;;;;5016703;28;20037;-79
2024/03/25 08:56:56;;;;;;;1.70;0.93;;;16.70;69.60;;;;;;5032304;28;20422;-79
2024/03/25 08:59:21;;;;;;;1.02;0.93;;;16.70;69.40;;;;;;5008306;28;20041;-79
2024/03/25 09:01:47;;;;;;;1.05;0.90;;;16.70;69.50;;;;;;5030554;28;20037;-79
2024/03/25 09:04:13;;;;;;;1.98;0.90;;;16.70;69.40;;;;;;5011376;28;20038;-79
2024/03/25 09:06:39;;;;;;;0.77;0.77;;;16.80;69.50;;;;;;5029101;28;20041;-79
2024/03/25 09:11:49;;;;;;;2.00;0.98;;;16.80;69.30;;;;;;5028115;28;20099;-79
2024/03/25 09:14:14;;;;;;;0.60;0.60;;;16.90;69.40;;;;;;5029038;28;20045;-80
2024/03/25 09:16:40;;;;;;;0.88;0.73;;;16.90;69.20;;;;;;5027226;28;20589;-79
2024/03/25 09:19:06;;;;;;;0.80;0.70;;;17.00;69.10;;;;;;5029032;28;20099;-79
2024/03/25 09:21:31;;;;;;;0.82;0.82;;;17.00;69.00;;;;;;5028883;28;20099;-79
2024/03/25 09:23:58;;;;;;;0.90;0.90;;;17.00;68.90;;;;;;5028902;28;20053;-80
2024/03/25 09:26:23;;;;;;;0.65;0.65;;;17.10;68.70;;;;;;5028063;28;20124;-79
2024/03/25 09:28:49;;;;;;;1.02;0.95;;;17.10;68.40;;;;;;5027912;28;20122;-79
2024/03/25 09:31:15;;;;;;;0.90;0.90;;;17.10;68.30;;;;;;5010614;28;20080;-79
2024/03/25 09:33:40;;;;;;;1.58;1.10;;;17.20;68.20;;;;;;5029194;28;20041;-79
2024/03/25 09:36:06;;;;;;;0.65;0.55;;;17.20;68.00;;;;;;5029821;28;20049;-80
2024/03/25 09:38:31;;;;;;;1.00;0.70;;;17.20;67.80;;;;;;5030054;28;20044;-79
2024/03/25 09:40:57;;;;;;;1.00;0.90;;;17.20;67.70;;;;;;5012054;28;20465;-79
2024/03/25 09:43:32;;;;;;;0.90;0.90;;;17.30;67.60;;;;;;5009909;28;20149;-79
2024/03/25 09:45:59;;;;;;;0.80;0.80;;;17.20;67.50;;;;;;5011063;28;20042;-79
2024/03/25 09:48:24;;;;;;;1.17;1.00;;;17.30;67.50;;;;;;4994652;28;20049;-79
2024/03/25 09:50:50;;;;;;;0.70;0.70;;;17.30;67.40;;;;;;4993337;28;20041;-79
2024/03/25 09:53:15;;;;;;;0.50;0.50;;;17.30;67.30;;;;;;5018204;28;20075;-80
2024/03/25 09:55:41;;;;;;;0.70;0.70;;;17.30;67.20;;;;;;4966739;28;20422;-79
2024/03/25 09:58:06;;;;;;;1.08;0.80;;;17.30;67.30;;;;;;4998396;28;20042;-80
2024/03/25 10:00:32;;;;;;;1.00;0.90;;;17.30;67.10;;;;;;5025771;28;20079;-79
2024/03/25 10:02:57;;;;;;;0.85;0.85;;;17.30;67.00;;;;;;5022062;28;20558;-80
2024/03/25 10:05:23;;;;;;;0.88;0.88;;;17.40;67.10;;;;;;5023746;28;20037;-79
2024/03/25 10:07:49;;;;;;;0.98;0.88;;;17.40;67.20;;;;;;5027216;28;20124;-80
2024/03/25 10:10:19;;;;;;;0.65;0.65;;;17.40;67.00;;;;;;5015985;28;20052;-79
2024/03/25 10:12:45;;;;;;;0.70;0.70;;;17.40;66.90;;;;;;5005419;28;20542;-79
2024/03/25 10:15:15;;;;;;;0.82;0.82;;;17.50;66.90;;;;;;5015838;28;20132;-80
2024/03/25 10:17:41;;;;;;;0.95;0.60;;;17.40;66.70;;;;;;5021282;28;20045;-79
2024/03/25 10:20:09;;;;;;;1.10;0.75;;;17.40;66.80;;;;;;5012290;28;20026;-80
2024/03/25 10:22:44;;;;;;;0.90;0.70;;;17.50;66.70;;;;;;4976308;28;20057;-79
2024/03/25 10:25:28;;;;;;;1.02;0.93;;;17.50;66.70;;;;;;5003025;28;20041;-80
2024/03/25 10:27:57;;;;;;;1.00;0.80;;;17.40;66.60;;;;;;5026928;28;20057;-79
2024/03/25 10:30:23;;;;;;;1.20;0.60;;;17.50;66.60;;;;;;5028038;28;20068;-80
2024/03/25 10:33:04;;;;;;;0.70;0.70;;;17.50;66.60;;;;;;5017983;28;20069;-80
2024/03/25 10:35:34;;;;;;;1.67;0.50;;;17.50;66.50;;;;;;5026875;28;20499;-80
2024/03/25 10:38:07;;;;;;;1.45;0.80;;;17.50;66.50;;;;;;5012144;28;20049;-79
2024/03/25 10:40:37;;;;;;;1.10;0.90;;;17.50;66.50;;;;;;5015111;28;20377;-80
2024/03/25 10:43:11;;;;;;;0.90;0.90;;;17.50;66.30;;;;;;5011749;28;20049;-80
2024/03/25 10:45:47;;;;;;;0.90;0.90;;;17.50;66.30;;;;;;5000771;28;20523;-79
2024/03/25 10:48:20;;;;;;;0.60;0.60;;;17.60;66.40;;;;;;5001280;28;20046;-80
2024/03/25 10:50:45;;;;;;;0.80;0.80;;;17.60;66.40;;;;;;4990662;28;20511;-79
2024/03/25 10:53:11;;;;;;;0.77;0.63;;;17.50;66.30;;;;;;5006223;28;20049;-80
2024/03/25 10:55:37;;;;;;;0.60;0.60;;;17.50;66.40;;;;;;5016146;28;20085;-79
2024/03/25 10:58:03;;;;;;;1.00;1.00;;;17.50;66.30;;;;;;5004434;28;20049;-80
2024/03/25 11:00:29;;;;;;;0.68;0.60;;;17.60;66.30;;;;;;5000172;28;20037;-80
2024/03/25 11:02:54;;;;;;;0.43;0.43;;;17.60;66.30;;;;;;5005256;28;20549;-80
2024/03/25 11:05:20;;;;;;;1.00;0.80;;;17.60;66.30;;;;;;5007169;28;20037;-80
2024/03/25 11:07:46;;;;;;;0.52;0.52;;;17.60;66.40;;;;;;5006845;28;20127;-80
2024/03/25 11:10:11;;;;;;;0.60;0.60;;;17.60;66.20;;;;;;4985821;28;20042;-80
2024/03/25 11:12:38;;;;;;;0.60;0.60;;;17.60;66.30;;;;;;5021340;28;20037;-79
2024/03/25 11:15:05;;;;;;;0.80;0.60;;;17.60;66.10;;;;;;5005280;28;20044;-79
2024/03/25 11:17:31;;;;;;;0.60;0.60;;;17.60;66.00;;;;;;5014147;28;20042;-80
2024/03/25 11:20:08;;;;;;;0.77;0.77;;;17.70;66.10;;;;;;5001462;28;20041;-80
2024/03/25 11:22:33;;;;;;;0.47;0.47;;;17.70;66.10;;;;;;5010921;28;20048;-79
2024/03/25 11:25:09;;;;;;;0.70;0.70;;;17.70;66.00;;;;;;5007468;28;20033;-80
2024/03/25 11:27:36;;;;;;;1.42;1.00;;;17.70;66.10;;;;;;5029923;28;20042;-79
2024/03/25 11:30:04;;;;;;;0.50;0.50;;;17.60;66.10;;;;;;5018306;28;20572;-80
2024/03/25 11:32:29;;;;;;;0.57;0.57;;;17.70;66.10;;;;;;5017457;28;20037;-79
2024/03/25 11:34:55;;;;;;;0.52;0.52;;;17.60;65.80;;;;;;5035665;28;20175;-79
2024/03/25 11:37:21;;;;;;;0.47;0.47;;;17.70;66.10;;;;;;5033816;28;20042;-80
2024/03/25 11:39:46;;;;;;;0.65;0.65;;;17.70;66.00;;;;;;5018461;28;20037;-79
2024/03/25 11:42:13;;;;;;;0.50;0.40;;;17.70;66.10;;;;;;5001426;28;20392;-80
2024/03/25 11:44:40;;;;;;;0.57;0.52;;;17.60;66.00;;;;;;5034491;28;20088;-80
2024/03/25 11:47:06;;;;;;;0.40;0.40;;;17.60;66.10;;;;;;5031285;28;20502;-80
2024/03/25 11:49:33;;;;;;;0.35;0.35;;;17.70;66.00;;;;;;5011039;28;20499;-79
2024/03/25 11:51:59;;;;;;;0.40;0.40;;;17.60;66.00;;;;;;5014013;28;20040;-80
2024/03/25 11:54:27;;;;;;;0.50;0.50;;;17.70;66.00;;;;;;5006736;28;20034;-79
2024/03/25 11:56:53;;;;;;;0.60;0.60;;;17.70;66.80;;;;;;5023186;28;20045;-79
2024/03/25 11:59:19;;;;;;;0.30;0.30;;;17.70;65.90;;;;;;4985591;28;20048;-79
2024/03/25 12:01:45;;;;;;;0.68;0.68;;;17.70;65.90;;;;;;5017057;28;20042;-79
2024/03/25 12:04:18;;;;;;;0.70;0.70;;;17.70;65.90;;;;;;5016170;28;20426;-79
2024/03/25 12:06:43;;;;;;;0.50;0.50;;;17.70;65.90;;;;;;5018181;28;20049;-80
2024/03/25 12:11:57;;;;;;;0.50;0.50;;;17.70;65.90;;;;;;5006577;28;20048;-80
2024/03/25 12:14:23;;;;;;;0.52;0.52;;;17.70;65.90;;;;;;5025526;28;20134;-80
2024/03/25 12:16:50;;;;;;;0.82;0.80;;;17.60;66.00;;;;;;4995185;28;20503;-80
2024/03/25 12:19:16;;;;;;;0.65;0.65;;;17.70;66.10;;;;;;5011725;28;20453;-79
2024/03/25 12:21:41;;;;;;;0.50;0.50;;;17.70;66.20;;;;;;5025283;28;20041;-79
2024/03/25 12:24:08;;;;;;;0.50;0.37;;;17.60;66.50;;;;;;4653495;28;9999694;-80
2024/03/25 12:26:34;;;;;;;0.43;0.43;;;17.70;66.30;;;;;;4985942;28;20428;-79
2024/03/25 12:29:00;;;;;;;0.50;0.50;;;17.70;66.30;;;;;;4983933;28;20132;-80
2024/03/25 12:31:25;;;;;;;0.68;0.45;;;17.70;66.40;;;;;;5004503;28;20172;-80
2024/03/25 12:33:51;;;;;;;0.70;0.60;;;17.70;66.40;;;;;;5018878;28;20050;-80
2024/03/25 12:36:17;;;;;;;0.40;0.40;;;17.70;66.40;;;;;;5002052;28;20103;-79
2024/03/25 12:38:43;;;;;;;1.60;0.40;;;17.70;66.50;;;;;;4987542;28;20127;-80
2024/03/25 12:41:12;;;;;;;0.60;0.60;;;17.70;66.50;;;;;;4991087;28;20050;-79
2024/03/25 12:43:43;;;;;;;0.60;0.60;;;17.70;66.50;;;;;;4987067;28;20450;-80
2024/03/25 12:46:09;;;;;;;0.45;0.40;;;17.70;66.50;;;;;;5012307;28;20068;-80
2024/03/25 12:48:36;;;;;;;1.45;0.65;;;17.70;66.40;;;;;;4992241;28;20506;-79
2024/03/25 12:51:02;;;;;;;0.75;0.50;;;17.70;66.30;;;;;;5014656;28;20048;-80
2024/03/25 12:53:27;;;;;;;0.60;0.60;;;17.70;66.20;;;;;;5033946;28;20041;-80